createdAt,value
2023-05-02T00:00:05.903Z,50.96
2023-05-02T00:03:04.304Z,51.08
2023-05-02T00:05:33.598Z,51.09
2023-05-02T00:08:01.050Z,51.10
2023-05-02T00:10:27.461Z,51.14
2023-05-02T00:12:55.918Z,51.28
2023-05-02T00:15:22.561Z,51.28
2023-05-02T00:17:56.455Z,51.35
2023-05-02T00:20:26.880Z,51.34
2023-05-02T00:22:56.569Z,51.57
2023-05-02T00:25:23.170Z,51.48
2023-05-02T00:27:52.340Z,51.56
2023-05-02T00:30:20.529Z,51.62
2023-05-02T00:32:47.103Z,51.66
2023-05-02T00:35:14.011Z,51.63
2023-05-02T00:37:46.572Z,51.64
2023-05-02T00:40:13.459Z,51.78
2023-05-02T00:42:43.031Z,51.84
2023-05-02T00:45:09.805Z,51.87
2023-05-02T00:47:41.411Z,51.82
2023-05-02T00:50:11.833Z,51.74
2023-05-02T00:52:43.037Z,51.77
2023-05-02T00:55:09.616Z,51.82
2023-05-02T00:57:38.747Z,51.91
2023-05-02T01:00:08.573Z,52.13
2023-05-02T01:02:45.631Z,52.15
2023-05-02T01:05:33.454Z,52.19
2023-05-02T01:08:15.123Z,52.36
2023-05-02T01:10:58.024Z,52.34
2023-05-02T01:13:29.023Z,52.30
2023-05-02T01:16:01.783Z,52.25
2023-05-02T01:18:40.592Z,52.45
2023-05-02T01:21:12.150Z,52.53
2023-05-02T01:23:52.967Z,52.61
2023-05-02T01:26:32.352Z,52.79
2023-05-02T01:29:03.058Z,52.72
2023-05-02T01:31:36.537Z,52.62
2023-05-02T01:34:11.482Z,52.94
2023-05-02T01:36:50.965Z,52.74
2023-05-02T01:39:26.292Z,52.69
2023-05-02T01:41:57.838Z,52.99
2023-05-02T01:44:35.036Z,53.13
2023-05-02T01:47:12.192Z,53.16
2023-05-02T01:49:44.921Z,53.12
2023-05-02T01:52:13.537Z,53.11
2023-05-02T01:54:52.498Z,53.16
2023-05-02T01:57:19.541Z,53.30
2023-05-02T01:59:52.422Z,53.11
2023-05-02T02:02:26.636Z,53.25
2023-05-02T02:05:01.201Z,53.19
2023-05-02T02:07:33.862Z,53.51
2023-05-02T02:10:12.386Z,53.57
2023-05-02T02:12:48.651Z,53.72
2023-05-02T02:15:25.434Z,53.73
2023-05-02T02:18:00.622Z,53.61
2023-05-02T02:20:33.422Z,53.75
2023-05-02T02:23:08.941Z,53.93
2023-05-02T02:25:37.524Z,54.01
2023-05-02T02:28:10.442Z,54.03
2023-05-02T02:30:47.914Z,54.11
2023-05-02T02:33:14.514Z,54.23
2023-05-02T02:35:49.457Z,53.99
2023-05-02T02:38:45.655Z,54.24
2023-05-02T02:41:18.553Z,54.38
2023-05-02T02:44:23.951Z,54.70
2023-05-02T02:47:08.372Z,54.53
